createdAt,value
2022-12-04T00:01:10.200Z,96849.56
2022-12-04T00:03:37.678Z,96855.72
2022-12-04T00:06:05.651Z,96852.22
2022-12-04T00:08:32.327Z,96854.81
2022-12-04T00:10:59.145Z,96854.94
2022-12-04T00:13:26.240Z,96856.63
2022-12-04T00:15:53.689Z,96847.03
2022-12-04T00:18:20.435Z,96849.69
2022-12-04T00:20:47.998Z,96844.50
2022-12-04T00:23:14.805Z,96848.72
2022-12-04T00:25:41.698Z,96854.28
2022-12-04T00:28:08.941Z,96853.34
2022-12-04T00:30:35.532Z,96861.88
2022-12-04T00:33:02.086Z,96857.47
2022-12-04T00:35:28.695Z,96854.09
2022-12-04T00:37:55.276Z,96855.72
2022-12-04T00:40:21.857Z,96857.34
2022-12-04T00:42:48.451Z,96853.25
2022-12-04T00:45:15.168Z,96862.81
2022-12-04T00:47:41.854Z,96853.41
2022-12-04T00:50:08.985Z,96849.09
2022-12-04T00:52:35.570Z,96856.84
2022-12-04T00:55:02.152Z,96849.31
2022-12-04T00:57:28.764Z,96850.16
2022-12-04T00:59:55.703Z,96862.09
2022-12-04T01:02:22.418Z,96858.72
2022-12-04T01:04:49.040Z,96858.66
2022-12-04T01:07:15.632Z,96856.19
2022-12-04T01:09:42.234Z,96854.31
2022-12-04T01:12:08.865Z,96850.22
2022-12-04T01:14:35.504Z,96849.19
2022-12-04T01:17:02.186Z,96847.38
2022-12-04T01:19:28.853Z,96854.19
2022-12-04T01:21:55.583Z,96855.78
2022-12-04T01:24:22.215Z,96852.50
2022-12-04T01:26:48.812Z,96853.25
2022-12-04T01:29:15.391Z,96847.38
2022-12-04T01:31:42.014Z,96848.16
2022-12-04T01:34:08.704Z,96839.50
2022-12-04T01:36:35.261Z,96849.00
2022-12-04T01:39:01.934Z,96838.69
2022-12-04T01:41:30.561Z,96835.22
2022-12-04T01:44:16.650Z,96836.94
2022-12-04T01:47:03.455Z,96831.75
2022-12-04T01:49:35.750Z,96841.13
2022-12-04T01:52:07.406Z,96839.50
2022-12-04T01:54:42.184Z,96837.03
2022-12-04T01:57:17.660Z,96827.50
2022-12-04T02:00:08.949Z,96820.78
2022-12-04T02:02:39.396Z,96822.47
2022-12-04T02:05:09.383Z,96823.38
2022-12-04T02:07:38.410Z,96819.72
2022-12-04T02:10:08.693Z,96821.28
2022-12-04T02:12:51.579Z,96817.78
2022-12-04T02:15:23.759Z,96827.56
2022-12-04T02:18:01.496Z,96845.53
2022-12-04T02:20:42.373Z,96845.53
2022-12-04T02:23:28.614Z,96843.81
2022-12-04T02:26:23.290Z,96843.28
2022-12-04T02:28:51.767Z,96835.44
2022-12-04T02:31:30.706Z,96840.56
2022-12-04T02:34:09.650Z,96845.03
2022-12-04T02:36:45.453Z,96853.03
2022-12-04T02:39:27.168Z,96843.22
2022-12-04T02:42:04.204Z,96843.16
2022-12-04T02:44:34.150Z,96847.59
2022-12-04T02:47:04.728Z,96857.75
2022-12-04T02:49:37.962Z,96858.16
2022-12-04T02:52:11.498Z,96846.00
2022-12-04T02:54:43.479Z,96841.66
2022-12-04T02:57:16.002Z,96836.38
2022-12-04T02:59:45.227Z,96836.41
2022-12-04T03:02:46.366Z,96832.00
2022-12-04T03:05:18.497Z,96830.16
2022-12-04T03:07:50.990Z,96830.94
2022-12-04T03:10:23.809Z,96829.19
2022-12-04T03:12:53.250Z,96825.00
2022-12-04T03:15:37.760Z,96834.34
2022-12-04T03:18:11.381Z,96841.13
2022-12-04T03:20:39.218Z,96841.28
2022-12-04T03:23:24.161Z,96842.22
2022-12-04T03:26:01.179Z,96840.56
2022-12-04T03:28:39.389Z,96825.19
2022-12-04T03:31:09.450Z,96831.03
2022-12-04T03:33:42.607Z,96835.50
2022-12-04T03:36:13.800Z,96837.88
2022-12-04T03:38:46.350Z,96838.09
2022-12-04T03:41:17.856Z,96835.28
2022-12-04T03:43:50.817Z,96830.16
2022-12-04T03:46:38.762Z,96819.94
2022-12-04T03:49:31.329Z,96822.56
2022-12-04T03:52:00.763Z,96818.28
2022-12-04T03:54:32.749Z,96825.88
2022-12-04T03:57:08.716Z,96829.47
2022-12-04T04:00:00.293Z,96819.22
2022-12-04T04:02:33.370Z,96821.69
2022-12-04T04:05:02.686Z,96818.38
2022-12-04T04:07:35.832Z,96817.44
2022-12-04T04:10:13.506Z,96810.31
2022-12-04T04:13:11.108Z,96811.22
2022-12-04T04:16:00.952Z,96818.22
2022-12-04T04:18:47.224Z,96824.22
2022-12-04T04:21:38.580Z,96822.66
2022-12-04T04:24:14.309Z,96813.09
2022-12-04T04:26:46.674Z,96808.00
2022-12-04T04:29:13.906Z,96811.44
2022-12-04T04:32:14.120Z,96821.88
2022-12-04T04:35:03.751Z,96827.13
2022-12-04T04:37:58.108Z,96829.78
2022-12-04T04:40:51.273Z,96828.19
2022-12-04T04:43:23.833Z,96830.63
2022-12-04T04:46:08.462Z,96826.25
2022-12-04T04:48:41.253Z,96817.03
2022-12-04T04:51:08.414Z,96815.19
2022-12-04T04:53:45.469Z,96814.44
2022-12-04T04:56:12.450Z,96821.44
2022-12-04T04:58:39.115Z,96815.28
2022-12-04T05:01:11.066Z,96815.97
2022-12-04T05:03:38.278Z,96822.84
2022-12-04T05:06:04.995Z,96817.81
2022-12-04T05:08:31.677Z,96813.63
2022-12-04T05:10:58.358Z,96809.19
2022-12-04T05:13:25.482Z,96815.22
2022-12-04T05:15:59.032Z,96804.00
2022-12-04T05:18:26.064Z,96801.50
2022-12-04T05:20:53.113Z,96809.28
2022-12-04T05:23:20.065Z,96810.28
2022-12-04T05:25:46.643Z,96810.38
2022-12-04T05:28:13.549Z,96812.06
2022-12-04T05:30:40.261Z,96813.66
2022-12-04T05:33:06.893Z,96808.41
2022-12-04T05:35:33.614Z,96814.50
2022-12-04T05:38:00.203Z,96819.63
2022-12-04T05:40:26.806Z,96820.59
2022-12-04T05:42:53.402Z,96819.75
2022-12-04T05:45:19.973Z,96822.50
2022-12-04T05:47:46.621Z,96821.59
2022-12-04T05:50:13.737Z,96826.78
2022-12-04T05:52:40.318Z,96832.31
2022-12-04T05:55:07.255Z,96831.13
2022-12-04T05:57:33.884Z,96838.09
2022-12-04T06:00:00.493Z,96845.13
2022-12-04T06:02:27.224Z,96837.25
2022-12-04T06:04:53.815Z,96845.81
2022-12-04T06:07:20.446Z,96831.19
2022-12-04T06:09:47.008Z,96838.94
2022-12-04T06:12:13.585Z,96838.03
2022-12-04T06:14:40.231Z,96836.75
2022-12-04T06:17:07.362Z,96848.63
2022-12-04T06:19:34.002Z,96846.94
2022-12-04T06:22:00.582Z,96846.78
2022-12-04T06:24:27.287Z,96852.91
2022-12-04T06:29:45.751Z,96855.56
2022-12-04T06:32:16.456Z,96855.66
2022-12-04T06:34:52.972Z,96852.97
2022-12-04T06:37:20.899Z,96853.19
2022-12-04T06:39:47.530Z,96853.09
2022-12-04T06:42:14.151Z,96852.69
2022-12-04T06:44:40.736Z,96854.44
2022-12-04T06:47:08.342Z,96854.44
2022-12-04T06:49:36.171Z,96859.72
2022-12-04T06:52:02.876Z,96858.09
2022-12-04T06:54:29.471Z,96863.28
2022-12-04T06:56:56.018Z,96865.94
2022-12-04T06:59:22.610Z,96867.66
2022-12-04T07:01:49.333Z,96856.50
2022-12-04T07:04:15.959Z,96860.06
2022-12-04T07:06:42.601Z,96864.16
2022-12-04T07:09:16.641Z,96862.59
2022-12-04T07:11:44.297Z,96867.56
2022-12-04T07:14:12.441Z,96861.41
2022-12-04T07:16:42.037Z,96869.47
2022-12-04T07:19:13.775Z,96864.97
2022-12-04T07:21:41.338Z,96856.41
2022-12-04T07:24:08.630Z,96853.88
2022-12-04T07:26:35.472Z,96849.53
2022-12-04T07:29:02.179Z,96850.31
2022-12-04T07:31:29.988Z,96851.00
2022-12-04T07:33:57.645Z,96840.56
2022-12-04T07:36:25.603Z,96843.41
2022-12-04T07:38:52.761Z,96850.88
2022-12-04T07:41:19.635Z,96845.75
2022-12-04T07:43:46.546Z,96856.19
2022-12-04T07:46:19.327Z,96856.13
2022-12-04T07:48:46.358Z,96857.09
2022-12-04T07:51:14.419Z,96857.19
2022-12-04T07:53:41.385Z,96854.72
2022-12-04T07:56:09.692Z,96844.94
2022-12-04T07:58:36.512Z,96841.38
2022-12-04T08:01:23.277Z,96843.25
2022-12-04T08:03:52.402Z,96847.72
2022-12-04T08:06:21.308Z,96848.84
2022-12-04T08:08:48.942Z,96847.00
2022-12-04T08:11:19.526Z,96849.53
2022-12-04T08:13:46.227Z,96840.88
2022-12-04T08:16:14.199Z,96847.53
2022-12-04T08:18:42.660Z,96848.97
2022-12-04T08:21:11.803Z,96847.41
2022-12-04T08:23:39.897Z,96849.94
2022-12-04T08:26:07.877Z,96852.91
2022-12-04T08:28:35.524Z,96859.50
2022-12-04T08:31:13.456Z,96857.94
2022-12-04T08:33:41.267Z,96855.06
2022-12-04T08:36:10.392Z,96861.19
2022-12-04T08:38:37.293Z,96863.75
2022-12-04T08:41:06.094Z,96866.47
2022-12-04T08:43:32.871Z,96865.94
2022-12-04T08:46:01.717Z,96874.38
2022-12-04T08:48:28.596Z,96862.09
2022-12-04T08:50:56.044Z,96863.75
2022-12-04T08:53:23.429Z,96864.69
2022-12-04T08:55:50.698Z,96863.69
2022-12-04T08:58:17.780Z,96867.28
2022-12-04T09:00:44.770Z,96864.06
2022-12-04T09:03:16.691Z,96861.78
2022-12-04T09:05:45.909Z,96873.06
2022-12-04T09:08:14.204Z,96880.72
2022-12-04T09:10:41.182Z,96880.63
2022-12-04T09:13:08.472Z,96876.00
2022-12-04T09:15:39.104Z,96875.28
2022-12-04T09:18:06.158Z,96879.44
2022-12-04T09:20:32.813Z,96864.84
2022-12-04T09:23:04.279Z,96863.94
2022-12-04T09:25:34.669Z,96851.91
2022-12-04T09:28:01.233Z,96857.53
2022-12-04T09:30:27.926Z,96850.56
2022-12-04T09:32:54.544Z,96848.59
2022-12-04T09:35:21.134Z,96854.78
2022-12-04T09:37:47.686Z,96855.84
2022-12-04T09:40:33.458Z,96864.06
2022-12-04T09:43:39.029Z,96859.72
2022-12-04T09:46:15.078Z,96858.72
2022-12-04T09:48:44.371Z,96865.47
2022-12-04T09:51:18.641Z,96867.28
2022-12-04T09:53:52.026Z,96848.41
2022-12-04T09:56:20.858Z,96855.03
2022-12-04T09:58:52.056Z,96847.13
2022-12-04T10:01:35.275Z,96833.44
2022-12-04T10:04:05.939Z,96829.81
2022-12-04T10:06:44.139Z,96830.44
2022-12-04T10:09:31.659Z,96832.38
2022-12-04T10:12:19.888Z,96834.31
2022-12-04T10:14:46.454Z,96835.56
2022-12-04T10:17:32.991Z,96837.50
2022-12-04T10:20:11.703Z,96833.75
2022-12-04T10:22:38.262Z,96829.53
2022-12-04T10:25:22.411Z,96818.28
2022-12-04T10:27:55.095Z,96816.56
2022-12-04T10:30:28.600Z,96817.63
2022-12-04T10:33:04.945Z,96821.81
2022-12-04T10:35:35.011Z,96824.06
2022-12-04T10:38:10.564Z,96821.47
2022-12-04T10:41:21.867Z,96817.97
2022-12-04T10:43:50.081Z,96809.53
2022-12-04T10:46:24.874Z,96816.00
2022-12-04T10:49:04.727Z,96812.50
2022-12-04T10:51:38.749Z,96807.38
2022-12-04T10:54:18.672Z,96810.50
2022-12-04T10:57:00.033Z,96813.03
2022-12-04T10:59:27.955Z,96801.63
2022-12-04T11:02:07.307Z,96803.25
2022-12-04T11:04:35.621Z,96808.44
2022-12-04T11:07:07.019Z,96800.78
2022-12-04T11:09:34.295Z,96797.16
2022-12-04T11:12:18.937Z,96797.25
2022-12-04T11:14:47.381Z,96802.41
2022-12-04T11:17:18.365Z,96800.84
2022-12-04T11:19:47.282Z,96799.16
2022-12-04T11:22:18.009Z,96802.34
2022-12-04T11:24:52.881Z,96797.84
2022-12-04T11:27:24.666Z,96792.34
2022-12-04T11:29:51.913Z,96786.25
2022-12-04T11:32:25.113Z,96793.88
2022-12-04T11:34:57.194Z,96789.53
2022-12-04T11:37:33.727Z,96792.66
2022-12-04T11:40:03.650Z,96789.94
2022-12-04T11:42:31.813Z,96786.44
2022-12-04T11:45:23.039Z,96794.94
2022-12-04T11:47:55.578Z,96791.50
2022-12-04T11:50:30.071Z,96790.00
2022-12-04T11:52:59.337Z,96790.84
2022-12-04T11:55:42.017Z,96786.47
2022-12-04T11:58:38.339Z,96782.97
2022-12-04T12:01:44.161Z,96787.47
2022-12-04T12:04:45.534Z,96783.34
2022-12-04T12:07:23.474Z,96771.16
2022-12-04T12:10:05.013Z,96772.84
2022-12-04T12:12:53.330Z,96774.72
2022-12-04T12:15:57.285Z,96765.91
2022-12-04T12:18:48.595Z,96760.63
2022-12-04T12:21:39.451Z,96753.66
2022-12-04T12:24:18.406Z,96749.38
2022-12-04T12:27:22.561Z,96740.94
2022-12-04T12:30:04.459Z,96746.19
2022-12-04T12:32:38.102Z,96756.44
2022-12-04T12:35:19.292Z,96757.94
2022-12-04T12:37:55.319Z,96758.25
2022-12-04T12:40:41.114Z,96763.34
2022-12-04T12:43:16.214Z,96776.16
2022-12-04T12:45:55.267Z,96774.00
2022-12-04T12:48:24.930Z,96775.66
2022-12-04T12:51:29.665Z,96771.91
2022-12-04T12:54:03.720Z,96771.69
2022-12-04T12:56:38.345Z,96772.28
2022-12-04T12:59:10.270Z,96770.78
2022-12-04T13:01:41.673Z,96766.56
2022-12-04T13:04:20.575Z,96755.81
2022-12-04T13:06:52.948Z,96761.91
2022-12-04T13:09:27.526Z,96756.84
2022-12-04T13:12:01.725Z,96759.25
2022-12-04T13:14:28.340Z,96754.25
2022-12-04T13:17:04.929Z,96751.66
2022-12-04T13:19:43.504Z,96746.66
2022-12-04T13:22:41.163Z,96737.28
2022-12-04T13:25:31.471Z,96737.25
2022-12-04T13:28:10.813Z,96744.22
2022-12-04T13:31:01.417Z,96742.47
2022-12-04T13:33:30.630Z,96735.38
2022-12-04T13:36:17.787Z,96734.47
2022-12-04T13:39:18.071Z,96736.13
2022-12-04T13:41:44.751Z,96733.19
2022-12-04T13:44:14.616Z,96732.16
2022-12-04T13:46:52.678Z,96732.31
2022-12-04T13:49:25.578Z,96735.06
2022-12-04T13:51:53.659Z,96735.78
2022-12-04T13:54:22.234Z,96734.91
2022-12-04T13:56:52.681Z,96735.06
2022-12-04T13:59:28.444Z,96736.75
2022-12-04T14:02:01.288Z,96734.38
2022-12-04T14:04:47.153Z,96727.84
2022-12-04T14:07:42.951Z,96725.31
2022-12-04T14:10:15.376Z,96725.41
2022-12-04T14:12:49.930Z,96718.38
2022-12-04T14:15:24.618Z,96712.50
2022-12-04T14:18:01.534Z,96721.19
2022-12-04T14:20:30.790Z,96716.78
2022-12-04T14:23:07.753Z,96718.81
2022-12-04T14:25:39.773Z,96720.53
2022-12-04T14:28:31.306Z,96720.34
2022-12-04T14:31:18.149Z,96714.94
2022-12-04T14:33:49.455Z,96706.84
2022-12-04T14:36:24.894Z,96710.19
2022-12-04T14:39:03.337Z,96702.41
2022-12-04T14:41:30.407Z,96706.38
2022-12-04T14:43:57.522Z,96715.00
2022-12-04T14:46:42.973Z,96715.78
2022-12-04T14:49:28.524Z,96719.38
2022-12-04T14:52:24.067Z,96708.44
2022-12-04T14:55:07.472Z,96715.38
2022-12-04T14:57:55.466Z,96713.84
2022-12-04T15:00:24.210Z,96718.13
2022-12-04T15:02:59.694Z,96709.38
2022-12-04T15:05:29.744Z,96711.56
2022-12-04T15:08:02.227Z,96707.06
2022-12-04T15:10:49.977Z,96707.91
2022-12-04T15:13:34.808Z,96705.28
2022-12-04T15:16:22.811Z,96708.72
2022-12-04T15:18:57.725Z,96711.34
2022-12-04T15:21:33.449Z,96706.28
2022-12-04T15:24:00.056Z,96714.13
2022-12-04T15:26:26.944Z,96713.94
2022-12-04T15:29:03.191Z,96718.25
2022-12-04T15:31:46.920Z,96717.16
2022-12-04T15:34:17.338Z,96728.38
2022-12-04T15:36:51.600Z,96727.41
2022-12-04T15:39:29.263Z,96727.47
2022-12-04T15:42:24.710Z,96744.06
2022-12-04T15:45:01.700Z,96745.75
2022-12-04T15:47:50.742Z,96747.50
2022-12-04T15:50:17.260Z,96751.84
2022-12-04T15:52:57.176Z,96760.22
2022-12-04T15:55:25.393Z,96757.72
2022-12-04T15:58:02.118Z,96761.97
2022-12-04T16:00:32.743Z,96756.97
2022-12-04T16:03:00.517Z,96757.03
2022-12-04T16:05:34.859Z,96753.59
2022-12-04T16:08:23.309Z,96757.09
2022-12-04T16:10:57.689Z,96765.72
2022-12-04T16:13:32.716Z,96763.19
2022-12-04T16:16:00.170Z,96766.50
2022-12-04T16:18:28.403Z,96764.06
2022-12-04T16:20:55.620Z,96754.44
2022-12-04T16:23:26.693Z,96761.53
2022-12-04T16:25:53.875Z,96755.34
2022-12-04T16:28:20.884Z,96753.16
2022-12-04T16:30:47.763Z,96754.91
2022-12-04T16:33:15.800Z,96761.72
2022-12-04T16:35:42.980Z,96761.84
2022-12-04T16:38:15.888Z,96760.16
2022-12-04T16:40:44.727Z,96757.63
2022-12-04T16:43:13.913Z,96758.22
2022-12-04T16:45:46.666Z,96757.19
2022-12-04T16:48:14.014Z,96761.78
2022-12-04T16:50:41.164Z,96757.31
2022-12-04T16:53:07.764Z,96771.38
2022-12-04T16:55:38.082Z,96760.16
2022-12-04T16:58:06.202Z,96762.69
2022-12-04T17:00:32.967Z,96759.19
2022-12-04T17:03:01.741Z,96761.78
2022-12-04T17:05:30.004Z,96760.09
2022-12-04T17:07:56.641Z,96761.22
2022-12-04T17:10:24.532Z,96766.41
2022-12-04T17:12:55.055Z,96770.47
2022-12-04T17:15:22.550Z,96767.81
2022-12-04T17:17:49.180Z,96764.19
2022-12-04T17:20:18.255Z,96768.34
2022-12-04T17:22:45.065Z,96766.00
2022-12-04T17:25:12.678Z,96764.13
2022-12-04T17:27:39.463Z,96767.38
2022-12-04T17:30:07.960Z,96763.81
2022-12-04T17:32:35.003Z,96765.75
2022-12-04T17:35:02.789Z,96769.38
2022-12-04T17:37:29.403Z,96768.41
2022-12-04T17:39:56.059Z,96752.91
2022-12-04T17:42:22.623Z,96767.50
2022-12-04T17:44:49.419Z,96764.19
2022-12-04T17:47:16.119Z,96761.44
2022-12-04T17:49:43.200Z,96764.03
2022-12-04T17:52:10.109Z,96755.16
2022-12-04T17:54:36.794Z,96757.88
2022-12-04T17:57:03.506Z,96755.28
2022-12-04T17:59:30.074Z,96752.50
2022-12-04T18:01:56.697Z,96749.06
2022-12-04T18:04:23.560Z,96751.59
2022-12-04T18:06:50.142Z,96755.97
2022-12-04T18:09:17.202Z,96752.56
2022-12-04T18:11:46.554Z,96755.38
2022-12-04T18:14:18.695Z,96751.94
2022-12-04T18:16:47.747Z,96751.91
2022-12-04T18:19:14.935Z,96746.75
2022-12-04T18:21:41.622Z,96751.84
2022-12-04T18:24:08.926Z,96746.53
2022-12-04T18:26:39.141Z,96746.59
2022-12-04T18:29:08.998Z,96741.41
2022-12-04T18:31:35.685Z,96747.38
2022-12-04T18:34:04.853Z,96742.19
2022-12-04T18:36:32.479Z,96738.75
2022-12-04T18:39:02.104Z,96734.34
2022-12-04T18:41:29.362Z,96736.91
2022-12-04T18:43:57.267Z,96735.16
2022-12-04T18:46:25.086Z,96721.44
2022-12-04T18:48:58.833Z,96720.53
2022-12-04T18:51:40.087Z,96716.31
2022-12-04T18:54:10.628Z,96717.03
2022-12-04T18:56:37.801Z,96717.03
2022-12-04T18:59:08.084Z,96716.94
2022-12-04T19:01:34.951Z,96709.16
2022-12-04T19:04:06.180Z,96717.66
2022-12-04T19:06:35.775Z,96721.22
2022-12-04T19:09:05.814Z,96711.56
2022-12-04T19:11:33.188Z,96715.13
2022-12-04T19:14:01.245Z,96715.00
2022-12-04T19:16:28.454Z,96713.22
2022-12-04T19:18:55.855Z,96715.84
2022-12-04T19:21:22.621Z,96719.34
2022-12-04T19:23:55.016Z,96724.38
2022-12-04T19:26:21.599Z,96728.81
2022-12-04T19:28:48.227Z,96735.09
2022-12-04T19:31:24.298Z,96735.88
2022-12-04T19:33:52.070Z,96739.28
2022-12-04T19:36:19.157Z,96747.84
2022-12-04T19:38:46.746Z,96763.41
2022-12-04T19:41:19.313Z,96759.19
2022-12-04T19:43:48.269Z,96764.09
2022-12-04T19:46:18.212Z,96761.63
2022-12-04T19:48:47.322Z,96756.59
2022-12-04T19:51:19.039Z,96761.84
2022-12-04T19:53:46.827Z,96767.75
2022-12-04T19:56:24.185Z,96764.38
2022-12-04T19:58:56.177Z,96769.69
2022-12-04T20:01:25.312Z,96769.56
2022-12-04T20:03:52.850Z,96774.63
2022-12-04T20:06:20.935Z,96772.69
2022-12-04T20:08:52.851Z,96783.13
2022-12-04T20:11:19.906Z,96773.72
2022-12-04T20:13:48.560Z,96778.06
2022-12-04T20:16:18.335Z,96785.13
2022-12-04T20:18:45.700Z,96778.19
2022-12-04T20:21:13.083Z,96771.91
2022-12-04T20:23:50.593Z,96777.22
2022-12-04T20:26:20.404Z,96775.22
2022-12-04T20:28:47.321Z,96780.47
2022-12-04T20:31:25.867Z,96774.56
2022-12-04T20:33:54.333Z,96776.25
2022-12-04T20:36:22.953Z,96780.47
2022-12-04T20:38:52.373Z,96785.78
2022-12-04T20:41:18.996Z,96780.72
2022-12-04T20:43:47.374Z,96785.00
2022-12-04T20:46:17.137Z,96788.38
2022-12-04T20:48:48.332Z,96789.38
2022-12-04T20:51:20.199Z,96788.44
2022-12-04T20:53:47.729Z,96786.63
2022-12-04T20:56:14.347Z,96788.38
2022-12-04T20:58:41.025Z,96792.84
2022-12-04T21:01:09.684Z,96796.94
2022-12-04T21:03:36.725Z,96794.34
2022-12-04T21:06:04.024Z,96791.69
2022-12-04T21:08:49.322Z,96798.56
2022-12-04T21:11:15.903Z,96804.53
2022-12-04T21:14:01.288Z,96809.66
2022-12-04T21:16:28.144Z,96807.84
2022-12-04T21:18:54.765Z,96808.53
2022-12-04T21:21:21.362Z,96814.53
2022-12-04T21:23:48.021Z,96816.13
2022-12-04T21:26:14.860Z,96815.28
2022-12-04T21:28:42.459Z,96823.72
2022-12-04T21:31:09.251Z,96828.94
2022-12-04T21:33:35.852Z,96830.53
2022-12-04T21:36:09.458Z,96827.13
2022-12-04T21:38:37.770Z,96832.22
2022-12-04T21:41:06.991Z,96826.28
2022-12-04T21:43:35.723Z,96820.28
2022-12-04T21:46:09.646Z,96826.13
2022-12-04T21:48:37.167Z,96820.06
2022-12-04T21:51:21.258Z,96821.91
2022-12-04T21:53:54.893Z,96820.97
2022-12-04T21:56:22.573Z,96809.63
2022-12-04T21:58:49.362Z,96809.97
2022-12-04T22:01:17.739Z,96819.56
2022-12-04T22:03:44.455Z,96816.34
2022-12-04T22:06:11.393Z,96816.34
2022-12-04T22:08:39.900Z,96819.66
2022-12-04T22:11:08.372Z,96814.38
2022-12-04T22:13:38.749Z,96816.06
2022-12-04T22:16:08.756Z,96816.91
2022-12-04T22:18:35.939Z,96822.81
2022-12-04T22:21:07.475Z,96822.94
2022-12-04T22:23:34.761Z,96809.97
2022-12-04T22:26:10.363Z,96815.22
2022-12-04T22:28:37.440Z,96821.34
2022-12-04T22:31:06.852Z,96822.03
2022-12-04T22:33:33.517Z,96812.69
2022-12-04T22:36:08.512Z,96820.50
2022-12-04T22:38:52.408Z,96825.75
2022-12-04T22:41:24.050Z,96819.78
2022-12-04T22:43:51.047Z,96821.34
2022-12-04T22:46:18.567Z,96814.25
2022-12-04T22:48:45.273Z,96815.09
2022-12-04T22:51:17.948Z,96818.53
2022-12-04T22:53:50.233Z,96819.44
2022-12-04T22:56:20.303Z,96821.00
2022-12-04T22:58:47.219Z,96814.97
2022-12-04T23:01:20.694Z,96811.53
2022-12-04T23:03:48.757Z,96813.41
2022-12-04T23:06:17.210Z,96817.75
2022-12-04T23:08:44.943Z,96813.53
2022-12-04T23:11:20.279Z,96809.91
2022-12-04T23:13:51.951Z,96811.59
2022-12-04T23:16:20.542Z,96814.25
2022-12-04T23:18:47.921Z,96816.69
2022-12-04T23:21:15.769Z,96816.56
2022-12-04T23:23:44.064Z,96821.84
2022-12-04T23:26:15.124Z,96820.88
2022-12-04T23:28:42.396Z,96819.16
2022-12-04T23:31:10.977Z,96818.19
2022-12-04T23:33:39.431Z,96826.00
2022-12-04T23:36:07.531Z,96825.22
2022-12-04T23:38:35.534Z,96822.75
2022-12-04T23:41:07.793Z,96817.53
2022-12-04T23:43:35.295Z,96822.69
2022-12-04T23:46:07.295Z,96827.97
2022-12-04T23:48:37.352Z,96825.38
2022-12-04T23:51:04.089Z,96832.28
2022-12-04T23:53:30.749Z,96836.59
2022-12-04T23:55:59.549Z,96834.13
2022-12-04T23:58:26.590Z,96834.91
